sensor_id;sensor_type;location;lat;lon;timestamp;temperature;humidity
3564;DHT22;1796;52.388;13.096;2024-01-30T00:01:52;1.00;99.90
3564;DHT22;1796;52.388;13.096;2024-01-30T00:04:19;1.00;99.90
3564;DHT22;1796;52.388;13.096;2024-01-30T00:06:47;1.10;99.90
3564;DHT22;1796;52.388;13.096;2024-01-30T00:09:14;1.10;99.90
3564;DHT22;1796;52.388;13.096;2024-01-30T00:11:41;1.10;99.90
3564;DHT22;1796;52.388;13.096;2024-01-30T00:14:08;1.10;99.90
3564;DHT22;1796;52.388;13.096;2024-01-30T00:16:34;1.00;99.90
3564;DHT22;1796;52.388;13.096;2024-01-30T00:19:01;1.00;99.90
3564;DHT22;1796;52.388;13.096;2024-01-30T00:21:29;0.90;99.90
3564;DHT22;1796;52.388;13.096;2024-01-30T00:23:57;0.80;99.90
3564;DHT22;1796;52.388;13.096;2024-01-30T00:26:24;0.70;99.90
3564;DHT22;1796;52.388;13.096;2024-01-30T00:28:51;0.80;99.90
3564;DHT22;1796;52.388;13.096;2024-01-30T00:31:17;0.80;99.90
3564;DHT22;1796;52.388;13.096;2024-01-30T00:33:45;0.90;99.90
3564;DHT22;1796;52.388;13.096;2024-01-30T00:36:11;0.80;99.90
3564;DHT22;1796;52.388;13.096;2024-01-30T00:38:38;0.80;99.90
3564;DHT22;1796;52.388;13.096;2024-01-30T00:41:08;0.90;99.90
3564;DHT22;1796;52.388;13.096;2024-01-30T00:43:35;1.00;99.90
3564;DHT22;1796;52.388;13.096;2024-01-30T00:46:02;1.00;99.90
3564;DHT22;1796;52.388;13.096;2024-01-30T00:48:29;1.10;99.90
3564;DHT22;1796;52.388;13.096;2024-01-30T00:50:55;1.10;99.90
3564;DHT22;1796;52.388;13.096;2024-01-30T00:53:22;1.10;99.90
3564;DHT22;1796;52.388;13.096;2024-01-30T00:55:49;1.00;99.90
3564;DHT22;1796;52.388;13.096;2024-01-30T00:58:17;1.00;99.90
3564;DHT22;1796;52.388;13.096;2024-01-30T01:00:45;0.90;99.90
3564;DHT22;1796;52.388;13.096;2024-01-30T01:03:12;0.80;99.90
3564;DHT22;1796;52.388;13.096;2024-01-30T01:05:39;0.70;99.90
3564;DHT22;1796;52.388;13.096;2024-01-30T01:08:06;0.60;99.90
3564;DHT22;1796;52.388;13.096;2024-01-30T01:10:34;0.60;99.90
3564;DHT22;1796;52.388;13.096;2024-01-30T01:13:01;0.60;99.90
3564;DHT22;1796;52.388;13.096;2024-01-30T01:15:29;0.60;99.90
3564;DHT22;1796;52.388;13.096;2024-01-30T01:17:56;0.60;99.90
3564;DHT22;1796;52.388;13.096;2024-01-30T01:20:23;0.60;99.90
3564;DHT22;1796;52.388;13.096;2024-01-30T01:22:50;0.50;99.90
3564;DHT22;1796;52.388;13.096;2024-01-30T01:25:18;0.50;99.90
3564;DHT22;1796;52.388;13.096;2024-01-30T01:27:45;0.50;99.90
3564;DHT22;1796;52.388;13.096;2024-01-30T01:30:17;0.60;99.90
3564;DHT22;1796;52.388;13.096;2024-01-30T01:32:48;0.60;99.90
3564;DHT22;1796;52.388;13.096;2024-01-30T01:35:21;0.60;99.90
3564;DHT22;1796;52.388;13.096;2024-01-30T01:37:48;0.70;99.90
3564;DHT22;1796;52.388;13.096;2024-01-30T01:40:21;0.70;99.90
3564;DHT22;1796;52.388;13.096;2024-01-30T01:42:49;0.70;99.90
3564;DHT22;1796;52.388;13.096;2024-01-30T01:45:16;0.70;99.90
3564;DHT22;1796;52.388;13.096;2024-01-30T01:47:44;0.60;99.90
3564;DHT22;1796;52.388;13.096;2024-01-30T01:50:14;0.60;99.90
3564;DHT22;1796;52.388;13.096;2024-01-30T01:52:44;0.60;99.90
3564;DHT22;1796;52.388;13.096;2024-01-30T01:55:11;0.50;99.90
3564;DHT22;1796;52.388;13.096;2024-01-30T01:57:39;0.50;99.90
3564;DHT22;1796;52.388;13.096;2024-01-30T02:00:07;0.40;99.90
3564;DHT22;1796;52.388;13.096;2024-01-30T02:02:36;0.40;99.90
3564;DHT22;1796;52.388;13.096;2024-01-30T02:05:03;0.30;99.90
3564;DHT22;1796;52.388;13.096;2024-01-30T02:07:32;0.30;99.90
3564;DHT22;1796;52.388;13.096;2024-01-30T02:09:59;0.30;99.90
3564;DHT22;1796;52.388;13.096;2024-01-30T02:12:25;0.30;99.90
3564;DHT22;1796;52.388;13.096;2024-01-30T02:14:52;0.20;99.90
3564;DHT22;1796;52.388;13.096;2024-01-30T02:17:20;0.40;99.90
3564;DHT22;1796;52.388;13.096;2024-01-30T02:19:48;0.50;99.90
3564;DHT22;1796;52.388;13.096;2024-01-30T02:22:16;0.60;99.90
3564;DHT22;1796;52.388;13.096;2024-01-30T02:24:43;0.50;99.90
3564;DHT22;1796;52.388;13.096;2024-01-30T02:27:10;0.40;99.90
3564;DHT22;1796;52.388;13.096;2024-01-30T02:29:37;0.50;99.90
3564;DHT22;1796;52.388;13.096;2024-01-30T02:32:05;0.50;99.90
3564;DHT22;1796;52.388;13.096;2024-01-30T02:34:33;0.50;99.90
3564;DHT22;1796;52.388;13.096;2024-01-30T02:36:59;0.50;99.90
3564;DHT22;1796;52.388;13.096;2024-01-30T02:39:28;0.50;99.90
3564;DHT22;1796;52.388;13.096;2024-01-30T02:41:55;0.60;99.90
3564;DHT22;1796;52.388;13.096;2024-01-30T02:44:22;0.70;99.90
3564;DHT22;1796;52.388;13.096;2024-01-30T02:46:49;0.70;99.90
3564;DHT22;1796;52.388;13.096;2024-01-30T02:49:16;0.80;99.90
3564;DHT22;1796;52.388;13.096;2024-01-30T02:51:43;0.80;99.90
3564;DHT22;1796;52.388;13.096;2024-01-30T02:54:09;0.80;99.90
3564;DHT22;1796;52.388;13.096;2024-01-30T02:56:38;0.70;99.90
3564;DHT22;1796;52.388;13.096;2024-01-30T02:59:05;0.70;99.90
3564;DHT22;1796;52.388;13.096;2024-01-30T03:01:31;0.70;99.90
3564;DHT22;1796;52.388;13.096;2024-01-30T03:03:58;0.60;99.90
3564;DHT22;1796;52.388;13.096;2024-01-30T03:06:25;0.60;99.90
3564;DHT22;1796;52.388;13.096;2024-01-30T03:08:52;0.50;99.90
3564;DHT22;1796;52.388;13.096;2024-01-30T03:11:19;0.40;99.90
3564;DHT22;1796;52.388;13.096;2024-01-30T03:13:47;0.40;99.90
3564;DHT22;1796;52.388;13.096;2024-01-30T03:16:14;0.30;99.90
3564;DHT22;1796;52.388;13.096;2024-01-30T03:18:41;0.30;99.90
3564;DHT22;1796;52.388;13.096;2024-01-30T03:21:07;0.30;99.90
3564;DHT22;1796;52.388;13.096;2024-01-30T03:23:34;0.40;99.90
3564;DHT22;1796;52.388;13.096;2024-01-30T03:26:01;0.40;99.90
3564;DHT22;1796;52.388;13.096;2024-01-30T03:28:30;0.50;99.90
3564;DHT22;1796;52.388;13.096;2024-01-30T03:30:58;0.50;99.90
3564;DHT22;1796;52.388;13.096;2024-01-30T03:33:25;0.50;99.90
3564;DHT22;1796;52.388;13.096;2024-01-30T03:35:53;0.40;99.90
3564;DHT22;1796;52.388;13.096;2024-01-30T03:38:20;0.40;99.90
3564;DHT22;1796;52.388;13.096;2024-01-30T03:40:47;0.50;99.90
3564;DHT22;1796;52.388;13.096;2024-01-30T03:43:14;0.50;99.90
3564;DHT22;1796;52.388;13.096;2024-01-30T03:45:41;0.40;99.90
3564;DHT22;1796;52.388;13.096;2024-01-30T03:48:09;0.50;99.90
3564;DHT22;1796;52.388;13.096;2024-01-30T03:50:36;0.50;99.90
3564;DHT22;1796;52.388;13.096;2024-01-30T03:53:03;0.50;99.90
3564;DHT22;1796;52.388;13.096;2024-01-30T03:55:30;0.50;99.90
3564;DHT22;1796;52.388;13.096;2024-01-30T03:57:57;0.50;99.90
3564;DHT22;1796;52.388;13.096;2024-01-30T04:00:24;0.40;99.90
3564;DHT22;1796;52.388;13.096;2024-01-30T04:02:50;0.40;99.90
3564;DHT22;1796;52.388;13.096;2024-01-30T04:05:19;0.40;99.90
3564;DHT22;1796;52.388;13.096;2024-01-30T04:07:45;0.40;99.90
3564;DHT22;1796;52.388;13.096;2024-01-30T04:10:12;0.40;99.90
3564;DHT22;1796;52.388;13.096;2024-01-30T04:12:39;0.40;99.90
3564;DHT22;1796;52.388;13.096;2024-01-30T04:15:06;0.40;99.90
3564;DHT22;1796;52.388;13.096;2024-01-30T04:17:33;0.40;99.90
3564;DHT22;1796;52.388;13.096;2024-01-30T04:20:00;0.40;99.90
3564;DHT22;1796;52.388;13.096;2024-01-30T04:22:28;0.40;99.90
3564;DHT22;1796;52.388;13.096;2024-01-30T04:24:55;0.40;99.90
3564;DHT22;1796;52.388;13.096;2024-01-30T04:27:22;0.30;99.90
3564;DHT22;1796;52.388;13.096;2024-01-30T04:29:49;0.30;99.90
3564;DHT22;1796;52.388;13.096;2024-01-30T04:32:16;0.20;99.90
3564;DHT22;1796;52.388;13.096;2024-01-30T04:34:43;0.10;99.90
3564;DHT22;1796;52.388;13.096;2024-01-30T04:37:11;0.00;99.90
3564;DHT22;1796;52.388;13.096;2024-01-30T04:39:39;0.00;99.90
3564;DHT22;1796;52.388;13.096;2024-01-30T04:42:06;0.00;99.90
3564;DHT22;1796;52.388;13.096;2024-01-30T04:44:33;0.10;99.90
3564;DHT22;1796;52.388;13.096;2024-01-30T04:47:00;0.20;99.90
3564;DHT22;1796;52.388;13.096;2024-01-30T04:49:27;0.10;99.90
3564;DHT22;1796;52.388;13.096;2024-01-30T04:51:54;0.10;99.90
3564;DHT22;1796;52.388;13.096;2024-01-30T04:54:21;0.10;99.90
3564;DHT22;1796;52.388;13.096;2024-01-30T04:56:49;0.20;99.90
3564;DHT22;1796;52.388;13.096;2024-01-30T04:59:16;0.30;99.90
3564;DHT22;1796;52.388;13.096;2024-01-30T05:01:43;0.40;99.90
3564;DHT22;1796;52.388;13.096;2024-01-30T05:04:10;0.40;99.90
3564;DHT22;1796;52.388;13.096;2024-01-30T05:06:37;0.40;99.90
3564;DHT22;1796;52.388;13.096;2024-01-30T05:09:04;0.40;99.90
3564;DHT22;1796;52.388;13.096;2024-01-30T05:11:31;0.30;99.90
3564;DHT22;1796;52.388;13.096;2024-01-30T05:13:59;0.30;99.90
3564;DHT22;1796;52.388;13.096;2024-01-30T05:16:26;0.20;99.90
3564;DHT22;1796;52.388;13.096;2024-01-30T05:18:53;0.10;99.90
3564;DHT22;1796;52.388;13.096;2024-01-30T05:21:20;0.00;99.90
3564;DHT22;1796;52.388;13.096;2024-01-30T05:23:47;0.00;99.90
3564;DHT22;1796;52.388;13.096;2024-01-30T05:26:14;-0.10;99.90
3564;DHT22;1796;52.388;13.096;2024-01-30T05:28:40;-0.10;99.90
3564;DHT22;1796;52.388;13.096;2024-01-30T05:31:11;-0.10;99.90
3564;DHT22;1796;52.388;13.096;2024-01-30T05:33:38;-0.20;99.90
3564;DHT22;1796;52.388;13.096;2024-01-30T05:36:05;-0.20;99.90
3564;DHT22;1796;52.388;13.096;2024-01-30T05:38:32;-0.10;99.90
3564;DHT22;1796;52.388;13.096;2024-01-30T05:40:59;0.00;99.90
3564;DHT22;1796;52.388;13.096;2024-01-30T05:43:26;0.10;99.90
3564;DHT22;1796;52.388;13.096;2024-01-30T05:45:52;0.20;99.90
3564;DHT22;1796;52.388;13.096;2024-01-30T05:48:21;0.20;99.90
3564;DHT22;1796;52.388;13.096;2024-01-30T05:50:47;0.20;99.90
3564;DHT22;1796;52.388;13.096;2024-01-30T05:53:14;0.20;99.90
3564;DHT22;1796;52.388;13.096;2024-01-30T05:55:41;0.20;99.90
3564;DHT22;1796;52.388;13.096;2024-01-30T05:58:08;0.20;99.90
3564;DHT22;1796;52.388;13.096;2024-01-30T06:00:35;0.10;99.90
3564;DHT22;1796;52.388;13.096;2024-01-30T06:03:02;0.10;99.90
3564;DHT22;1796;52.388;13.096;2024-01-30T06:05:30;0.10;99.90
3564;DHT22;1796;52.388;13.096;2024-01-30T06:07:57;0.10;99.90
3564;DHT22;1796;52.388;13.096;2024-01-30T06:10:24;0.10;99.90
3564;DHT22;1796;52.388;13.096;2024-01-30T06:12:51;0.10;99.90
3564;DHT22;1796;52.388;13.096;2024-01-30T06:15:18;0.10;99.90
3564;DHT22;1796;52.388;13.096;2024-01-30T06:17:45;0.10;99.90
3564;DHT22;1796;52.388;13.096;2024-01-30T06:20:12;0.10;99.90
3564;DHT22;1796;52.388;13.096;2024-01-30T06:22:40;0.10;99.90
3564;DHT22;1796;52.388;13.096;2024-01-30T06:25:07;0.00;99.90
3564;DHT22;1796;52.388;13.096;2024-01-30T06:27:34;0.10;99.90
3564;DHT22;1796;52.388;13.096;2024-01-30T06:30:01;0.10;99.90
3564;DHT22;1796;52.388;13.096;2024-01-30T06:32:28;0.30;99.90
3564;DHT22;1796;52.388;13.096;2024-01-30T06:34:59;0.20;99.90
3564;DHT22;1796;52.388;13.096;2024-01-30T06:37:26;0.20;99.90
3564;DHT22;1796;52.388;13.096;2024-01-30T06:39:54;0.20;99.90
3564;DHT22;1796;52.388;13.096;2024-01-30T06:42:21;0.20;99.90
3564;DHT22;1796;52.388;13.096;2024-01-30T06:44:48;0.30;99.90
3564;DHT22;1796;52.388;13.096;2024-01-30T06:47:15;0.30;99.90
3564;DHT22;1796;52.388;13.096;2024-01-30T06:49:42;0.40;99.90
3564;DHT22;1796;52.388;13.096;2024-01-30T06:52:09;0.40;99.90
3564;DHT22;1796;52.388;13.096;2024-01-30T06:54:36;0.50;99.90
3564;DHT22;1796;52.388;13.096;2024-01-30T06:57:05;0.60;99.90
3564;DHT22;1796;52.388;13.096;2024-01-30T06:59:34;0.70;99.90
3564;DHT22;1796;52.388;13.096;2024-01-30T07:02:01;0.80;99.90
3564;DHT22;1796;52.388;13.096;2024-01-30T07:04:28;0.80;99.90
3564;DHT22;1796;52.388;13.096;2024-01-30T07:06:56;0.80;99.90
3564;DHT22;1796;52.388;13.096;2024-01-30T07:09:23;0.80;99.90
3564;DHT22;1796;52.388;13.096;2024-01-30T07:11:50;0.80;99.90
3564;DHT22;1796;52.388;13.096;2024-01-30T07:14:19;0.90;99.90
3564;DHT22;1796;52.388;13.096;2024-01-30T07:16:45;1.00;99.90
3564;DHT22;1796;52.388;13.096;2024-01-30T07:19:12;1.00;99.90
3564;DHT22;1796;52.388;13.096;2024-01-30T07:21:39;1.10;99.90
3564;DHT22;1796;52.388;13.096;2024-01-30T07:24:06;1.20;99.90
3564;DHT22;1796;52.388;13.096;2024-01-30T07:26:33;1.30;99.90
3564;DHT22;1796;52.388;13.096;2024-01-30T07:29:01;1.30;99.90
3564;DHT22;1796;52.388;13.096;2024-01-30T07:31:30;1.30;99.90
3564;DHT22;1796;52.388;13.096;2024-01-30T07:33:56;1.30;99.90
3564;DHT22;1796;52.388;13.096;2024-01-30T07:36:23;1.20;99.90
3564;DHT22;1796;52.388;13.096;2024-01-30T07:38:50;1.20;99.90
3564;DHT22;1796;52.388;13.096;2024-01-30T07:41:19;1.20;99.90
3564;DHT22;1796;52.388;13.096;2024-01-30T07:43:46;1.20;99.90
3564;DHT22;1796;52.388;13.096;2024-01-30T07:46:13;1.20;99.90
3564;DHT22;1796;52.388;13.096;2024-01-30T07:48:42;1.20;99.90
3564;DHT22;1796;52.388;13.096;2024-01-30T07:51:09;1.30;99.90
3564;DHT22;1796;52.388;13.096;2024-01-30T07:53:35;1.30;99.90
3564;DHT22;1796;52.388;13.096;2024-01-30T07:56:02;1.30;99.90
3564;DHT22;1796;52.388;13.096;2024-01-30T07:58:29;1.40;99.90
3564;DHT22;1796;52.388;13.096;2024-01-30T08:00:56;1.50;99.90
3564;DHT22;1796;52.388;13.096;2024-01-30T08:03:24;1.60;99.90
3564;DHT22;1796;52.388;13.096;2024-01-30T08:05:52;1.60;99.90
3564;DHT22;1796;52.388;13.096;2024-01-30T08:08:19;1.80;99.90
3564;DHT22;1796;52.388;13.096;2024-01-30T08:10:45;1.90;99.90
3564;DHT22;1796;52.388;13.096;2024-01-30T08:13:13;1.90;99.90
3564;DHT22;1796;52.388;13.096;2024-01-30T08:15:40;2.00;99.90
3564;DHT22;1796;52.388;13.096;2024-01-30T08:18:07;2.10;99.90
3564;DHT22;1796;52.388;13.096;2024-01-30T08:20:34;2.20;99.90
3564;DHT22;1796;52.388;13.096;2024-01-30T08:23:02;2.10;99.90
3564;DHT22;1796;52.388;13.096;2024-01-30T08:25:29;2.20;99.90
3564;DHT22;1796;52.388;13.096;2024-01-30T08:27:56;2.30;99.90
3564;DHT22;1796;52.388;13.096;2024-01-30T08:30:23;2.40;99.90
3564;DHT22;1796;52.388;13.096;2024-01-30T08:32:50;2.40;99.90
3564;DHT22;1796;52.388;13.096;2024-01-30T08:35:17;2.50;99.90
3564;DHT22;1796;52.388;13.096;2024-01-30T08:37:44;2.50;99.90
3564;DHT22;1796;52.388;13.096;2024-01-30T08:40:12;2.60;99.90
3564;DHT22;1796;52.388;13.096;2024-01-30T08:42:39;2.70;99.90
3564;DHT22;1796;52.388;13.096;2024-01-30T08:45:06;2.80;99.90
3564;DHT22;1796;52.388;13.096;2024-01-30T08:47:34;2.80;99.90
3564;DHT22;1796;52.388;13.096;2024-01-30T08:50:01;2.90;99.90
3564;DHT22;1796;52.388;13.096;2024-01-30T08:52:28;2.90;99.90
3564;DHT22;1796;52.388;13.096;2024-01-30T08:54:55;3.00;99.90
3564;DHT22;1796;52.388;13.096;2024-01-30T08:57:23;3.10;99.90
3564;DHT22;1796;52.388;13.096;2024-01-30T08:59:54;3.20;99.90
3564;DHT22;1796;52.388;13.096;2024-01-30T09:02:20;3.10;99.90
3564;DHT22;1796;52.388;13.096;2024-01-30T09:04:47;3.20;99.90
3564;DHT22;1796;52.388;13.096;2024-01-30T09:07:14;3.30;99.90
3564;DHT22;1796;52.388;13.096;2024-01-30T09:09:41;3.40;99.90
3564;DHT22;1796;52.388;13.096;2024-01-30T09:12:08;3.40;99.90
3564;DHT22;1796;52.388;13.096;2024-01-30T09:14:39;3.50;99.90
3564;DHT22;1796;52.388;13.096;2024-01-30T09:17:06;3.50;99.90
3564;DHT22;1796;52.388;13.096;2024-01-30T09:19:33;3.60;99.90
3564;DHT22;1796;52.388;13.096;2024-01-30T09:22:00;3.60;99.90
3564;DHT22;1796;52.388;13.096;2024-01-30T09:24:27;3.70;99.90
3564;DHT22;1796;52.388;13.096;2024-01-30T09:26:54;3.70;99.90
3564;DHT22;1796;52.388;13.096;2024-01-30T09:29:21;3.80;99.90
3564;DHT22;1796;52.388;13.096;2024-01-30T09:31:50;3.90;99.90
3564;DHT22;1796;52.388;13.096;2024-01-30T09:34:16;4.00;99.90
3564;DHT22;1796;52.388;13.096;2024-01-30T09:36:43;4.10;99.90
3564;DHT22;1796;52.388;13.096;2024-01-30T09:39:10;4.20;99.90
3564;DHT22;1796;52.388;13.096;2024-01-30T09:41:45;4.20;99.90
3564;DHT22;1796;52.388;13.096;2024-01-30T09:44:12;4.30;99.90
3564;DHT22;1796;52.388;13.096;2024-01-30T09:46:40;4.30;99.90
3564;DHT22;1796;52.388;13.096;2024-01-30T09:49:09;4.40;99.90
3564;DHT22;1796;52.388;13.096;2024-01-30T09:51:37;4.50;99.90
3564;DHT22;1796;52.388;13.096;2024-01-30T09:54:04;4.60;99.90
3564;DHT22;1796;52.388;13.096;2024-01-30T09:56:31;4.60;99.90
3564;DHT22;1796;52.388;13.096;2024-01-30T09:58:58;4.70;99.90
3564;DHT22;1796;52.388;13.096;2024-01-30T10:01:25;4.80;99.90
3564;DHT22;1796;52.388;13.096;2024-01-30T10:03:53;4.80;99.90
3564;DHT22;1796;52.388;13.096;2024-01-30T10:06:21;4.80;99.90
3564;DHT22;1796;52.388;13.096;2024-01-30T10:08:51;4.90;99.90
3564;DHT22;1796;52.388;13.096;2024-01-30T10:11:18;5.00;99.90
3564;DHT22;1796;52.388;13.096;2024-01-30T10:13:44;5.10;99.90
3564;DHT22;1796;52.388;13.096;2024-01-30T10:16:14;5.10;99.90
3564;DHT22;1796;52.388;13.096;2024-01-30T10:18:42;5.20;99.90
3564;DHT22;1796;52.388;13.096;2024-01-30T10:21:09;5.20;99.90
3564;DHT22;1796;52.388;13.096;2024-01-30T10:23:38;5.20;99.90
3564;DHT22;1796;52.388;13.096;2024-01-30T10:26:07;5.30;99.90
3564;DHT22;1796;52.388;13.096;2024-01-30T10:28:34;5.40;99.90
3564;DHT22;1796;52.388;13.096;2024-01-30T10:31:01;5.40;99.90
3564;DHT22;1796;52.388;13.096;2024-01-30T10:33:29;5.40;99.90
3564;DHT22;1796;52.388;13.096;2024-01-30T10:36:01;5.50;99.90
3564;DHT22;1796;52.388;13.096;2024-01-30T10:38:29;5.60;99.90
3564;DHT22;1796;52.388;13.096;2024-01-30T10:41:00;5.60;99.90
3564;DHT22;1796;52.388;13.096;2024-01-30T10:43:31;5.70;99.90
3564;DHT22;1796;52.388;13.096;2024-01-30T10:46:10;5.70;99.90
3564;DHT22;1796;52.388;13.096;2024-01-30T10:48:42;5.80;99.90
3564;DHT22;1796;52.388;13.096;2024-01-30T10:51:11;5.90;99.90
3564;DHT22;1796;52.388;13.096;2024-01-30T10:53:39;5.90;99.90
3564;DHT22;1796;52.388;13.096;2024-01-30T10:56:08;5.90;99.90
3564;DHT22;1796;52.388;13.096;2024-01-30T10:58:36;5.90;99.90
3564;DHT22;1796;52.388;13.096;2024-01-30T11:01:04;5.90;99.90
3564;DHT22;1796;52.388;13.096;2024-01-30T11:03:33;6.00;99.90
3564;DHT22;1796;52.388;13.096;2024-01-30T11:06:02;6.00;99.90
3564;DHT22;1796;52.388;13.096;2024-01-30T11:08:32;6.10;99.90
3564;DHT22;1796;52.388;13.096;2024-01-30T11:10:59;6.20;99.90
3564;DHT22;1796;52.388;13.096;2024-01-30T11:13:30;6.20;99.90
3564;DHT22;1796;52.388;13.096;2024-01-30T11:16:00;6.30;99.90
3564;DHT22;1796;52.388;13.096;2024-01-30T11:18:29;6.40;99.90
3564;DHT22;1796;52.388;13.096;2024-01-30T11:20:57;6.50;99.90
3564;DHT22;1796;52.388;13.096;2024-01-30T11:23:25;6.50;99.90
3564;DHT22;1796;52.388;13.096;2024-01-30T11:25:53;6.60;99.90
3564;DHT22;1796;52.388;13.096;2024-01-30T11:28:21;6.70;99.90
3564;DHT22;1796;52.388;13.096;2024-01-30T11:30:50;6.90;99.90
3564;DHT22;1796;52.388;13.096;2024-01-30T11:33:28;7.00;99.90
3564;DHT22;1796;52.388;13.096;2024-01-30T11:35:58;7.10;99.90
3564;DHT22;1796;52.388;13.096;2024-01-30T11:38:26;7.30;99.90
3564;DHT22;1796;52.388;13.096;2024-01-30T11:40:54;7.30;99.90
3564;DHT22;1796;52.388;13.096;2024-01-30T11:43:21;7.30;99.90
3564;DHT22;1796;52.388;13.096;2024-01-30T11:45:50;7.30;99.90
3564;DHT22;1796;52.388;13.096;2024-01-30T11:48:17;7.30;99.90
3564;DHT22;1796;52.388;13.096;2024-01-30T11:50:44;7.40;99.90
3564;DHT22;1796;52.388;13.096;2024-01-30T11:53:11;7.50;99.90
3564;DHT22;1796;52.388;13.096;2024-01-30T11:55:38;7.50;99.90
3564;DHT22;1796;52.388;13.096;2024-01-30T11:58:05;7.60;99.90
3564;DHT22;1796;52.388;13.096;2024-01-30T12:00:32;7.50;99.90
3564;DHT22;1796;52.388;13.096;2024-01-30T12:03:01;7.70;99.90
3564;DHT22;1796;52.388;13.096;2024-01-30T12:05:28;7.70;99.90
3564;DHT22;1796;52.388;13.096;2024-01-30T12:07:55;7.70;99.90
3564;DHT22;1796;52.388;13.096;2024-01-30T12:10:24;7.80;99.90
3564;DHT22;1796;52.388;13.096;2024-01-30T12:12:52;7.90;99.90
3564;DHT22;1796;52.388;13.096;2024-01-30T12:15:21;8.00;99.90
3564;DHT22;1796;52.388;13.096;2024-01-30T12:17:48;8.00;99.90
3564;DHT22;1796;52.388;13.096;2024-01-30T12:20:19;8.10;99.90
3564;DHT22;1796;52.388;13.096;2024-01-30T12:22:48;8.20;99.90
3564;DHT22;1796;52.388;13.096;2024-01-30T12:25:16;8.10;99.90
3564;DHT22;1796;52.388;13.096;2024-01-30T12:27:44;8.20;99.90
3564;DHT22;1796;52.388;13.096;2024-01-30T12:30:13;8.20;99.90
3564;DHT22;1796;52.388;13.096;2024-01-30T12:32:41;8.10;99.90
3564;DHT22;1796;52.388;13.096;2024-01-30T12:35:10;8.10;99.90
3564;DHT22;1796;52.388;13.096;2024-01-30T12:37:38;8.20;99.90
3564;DHT22;1796;52.388;13.096;2024-01-30T12:40:07;8.10;99.90
3564;DHT22;1796;52.388;13.096;2024-01-30T12:42:34;8.10;99.90
3564;DHT22;1796;52.388;13.096;2024-01-30T12:45:02;8.20;99.90
3564;DHT22;1796;52.388;13.096;2024-01-30T12:47:29;8.10;99.90
3564;DHT22;1796;52.388;13.096;2024-01-30T12:49:56;8.20;99.90
3564;DHT22;1796;52.388;13.096;2024-01-30T12:52:24;8.10;99.90
3564;DHT22;1796;52.388;13.096;2024-01-30T12:54:52;8.10;99.90
3564;DHT22;1796;52.388;13.096;2024-01-30T12:57:19;8.10;99.90
3564;DHT22;1796;52.388;13.096;2024-01-30T12:59:47;8.20;99.90
3564;DHT22;1796;52.388;13.096;2024-01-30T13:02:15;8.30;99.90
3564;DHT22;1796;52.388;13.096;2024-01-30T13:04:42;8.20;99.90
3564;DHT22;1796;52.388;13.096;2024-01-30T13:07:09;8.30;99.90
3564;DHT22;1796;52.388;13.096;2024-01-30T13:09:36;8.40;99.90
3564;DHT22;1796;52.388;13.096;2024-01-30T13:12:05;8.40;99.90
3564;DHT22;1796;52.388;13.096;2024-01-30T13:14:32;8.50;99.90
3564;DHT22;1796;52.388;13.096;2024-01-30T13:16:59;8.40;99.90
3564;DHT22;1796;52.388;13.096;2024-01-30T13:19:26;8.50;99.90
3564;DHT22;1796;52.388;13.096;2024-01-30T13:21:53;8.50;99.90
3564;DHT22;1796;52.388;13.096;2024-01-30T13:24:20;8.50;99.90
3564;DHT22;1796;52.388;13.096;2024-01-30T13:26:47;8.60;99.90
3564;DHT22;1796;52.388;13.096;2024-01-30T13:29:15;8.70;99.90
3564;DHT22;1796;52.388;13.096;2024-01-30T13:31:42;8.70;99.90
3564;DHT22;1796;52.388;13.096;2024-01-30T13:34:11;8.60;99.90
3564;DHT22;1796;52.388;13.096;2024-01-30T13:36:39;8.60;99.90
3564;DHT22;1796;52.388;13.096;2024-01-30T13:39:06;8.70;99.90
3564;DHT22;1796;52.388;13.096;2024-01-30T13:41:34;8.70;99.90
3564;DHT22;1796;52.388;13.096;2024-01-30T13:44:01;8.60;99.90
3564;DHT22;1796;52.388;13.096;2024-01-30T13:46:30;8.60;99.90
3564;DHT22;1796;52.388;13.096;2024-01-30T13:48:57;8.70;99.90
3564;DHT22;1796;52.388;13.096;2024-01-30T13:51:24;8.60;99.90
3564;DHT22;1796;52.388;13.096;2024-01-30T13:53:51;8.60;99.90
3564;DHT22;1796;52.388;13.096;2024-01-30T13:56:18;8.60;99.90
3564;DHT22;1796;52.388;13.096;2024-01-30T13:58:45;8.70;99.90
3564;DHT22;1796;52.388;13.096;2024-01-30T14:01:12;8.70;99.90
3564;DHT22;1796;52.388;13.096;2024-01-30T14:03:40;8.70;99.90
3564;DHT22;1796;52.388;13.096;2024-01-30T14:06:08;8.70;99.90
3564;DHT22;1796;52.388;13.096;2024-01-30T14:08:34;8.60;99.90
3564;DHT22;1796;52.388;13.096;2024-01-30T14:11:01;8.70;99.90
3564;DHT22;1796;52.388;13.096;2024-01-30T14:13:29;8.70;99.90
3564;DHT22;1796;52.388;13.096;2024-01-30T14:15:56;8.70;99.90
3564;DHT22;1796;52.388;13.096;2024-01-30T14:18:23;8.70;99.90
3564;DHT22;1796;52.388;13.096;2024-01-30T14:20:52;8.60;99.90
3564;DHT22;1796;52.388;13.096;2024-01-30T14:23:19;8.60;99.90
3564;DHT22;1796;52.388;13.096;2024-01-30T14:25:47;8.50;99.90
3564;DHT22;1796;52.388;13.096;2024-01-30T14:28:14;8.50;99.90
3564;DHT22;1796;52.388;13.096;2024-01-30T14:30:41;8.60;99.90
3564;DHT22;1796;52.388;13.096;2024-01-30T14:33:08;8.60;99.90
3564;DHT22;1796;52.388;13.096;2024-01-30T14:35:35;8.50;99.90
3564;DHT22;1796;52.388;13.096;2024-01-30T14:38:03;8.50;99.90
3564;DHT22;1796;52.388;13.096;2024-01-30T14:40:33;8.40;99.90
3564;DHT22;1796;52.388;13.096;2024-01-30T14:42:59;8.30;99.90
3564;DHT22;1796;52.388;13.096;2024-01-30T14:45:26;8.30;99.90
3564;DHT22;1796;52.388;13.096;2024-01-30T14:47:53;8.30;99.90
3564;DHT22;1796;52.388;13.096;2024-01-30T14:50:21;8.20;99.90
3564;DHT22;1796;52.388;13.096;2024-01-30T14:52:48;8.20;99.90
3564;DHT22;1796;52.388;13.096;2024-01-30T14:55:17;8.10;99.90
3564;DHT22;1796;52.388;13.096;2024-01-30T14:57:44;8.10;99.90
3564;DHT22;1796;52.388;13.096;2024-01-30T15:00:12;8.10;99.90
3564;DHT22;1796;52.388;13.096;2024-01-30T15:02:39;8.00;99.90
3564;DHT22;1796;52.388;13.096;2024-01-30T15:05:06;8.00;99.90
3564;DHT22;1796;52.388;13.096;2024-01-30T15:07:36;7.90;99.90
3564;DHT22;1796;52.388;13.096;2024-01-30T15:10:08;7.90;99.90
3564;DHT22;1796;52.388;13.096;2024-01-30T15:12:36;7.90;99.90
3564;DHT22;1796;52.388;13.096;2024-01-30T15:15:04;7.80;99.90
3564;DHT22;1796;52.388;13.096;2024-01-30T15:17:31;7.70;99.90
3564;DHT22;1796;52.388;13.096;2024-01-30T15:19:58;7.80;99.90
3564;DHT22;1796;52.388;13.096;2024-01-30T15:22:26;7.70;99.90
3564;DHT22;1796;52.388;13.096;2024-01-30T15:24:52;7.70;99.90
3564;DHT22;1796;52.388;13.096;2024-01-30T15:27:19;7.60;99.90
3564;DHT22;1796;52.388;13.096;2024-01-30T15:29:48;7.50;99.90
3564;DHT22;1796;52.388;13.096;2024-01-30T15:32:15;7.50;99.90
3564;DHT22;1796;52.388;13.096;2024-01-30T15:34:42;7.40;99.90
3564;DHT22;1796;52.388;13.096;2024-01-30T15:37:09;7.30;99.90
3564;DHT22;1796;52.388;13.096;2024-01-30T15:39:36;7.30;99.90
3564;DHT22;1796;52.388;13.096;2024-01-30T15:42:03;7.30;99.90
3564;DHT22;1796;52.388;13.096;2024-01-30T15:44:30;7.20;99.90
3564;DHT22;1796;52.388;13.096;2024-01-30T15:46:58;7.10;99.90
3564;DHT22;1796;52.388;13.096;2024-01-30T15:49:25;7.10;99.90
3564;DHT22;1796;52.388;13.096;2024-01-30T15:51:52;7.00;99.90
3564;DHT22;1796;52.388;13.096;2024-01-30T15:54:19;6.90;99.90
3564;DHT22;1796;52.388;13.096;2024-01-30T15:56:47;6.90;99.90
3564;DHT22;1796;52.388;13.096;2024-01-30T15:59:14;6.80;99.90
3564;DHT22;1796;52.388;13.096;2024-01-30T16:01:41;6.80;99.90
3564;DHT22;1796;52.388;13.096;2024-01-30T16:04:14;6.70;99.90